Flugplatz Friesach-Hirt (LOKH)

Hier findest Du alle Informationen zum Flugplatz Friesach-Hirt (LOKH).

Informationen für Piloten zum Flugplatz Friesach-Hirt

Hier findest Du alle relevanten Informationen, die Du als Pilot benötigst, um Friesach-Hirt anzufliegen.

Flugplatz: Friesach-Hirt ICAO-Code: LOKH
Frequenz Turm: 122,080 Mhz GAFOR Gebiet: -
Frequenz Ground: 122,080 Mhz Mogas: ja
Platzrunde: W 3000 ft Landegebühr: -
Platzhöhe: - Sunrise: 06:34 Uhr UTC
Pisten: 17/35 - 707 m x 30 m, GRAS Sunset: 15:54 Uhr UTC

Mitglieder, die in Friesach-Hirt fliegen

Flugwetter am Flugplatz Friesach-Hirt

Die METAR Information stammen aus EDDM (253.73 km entfernt).

METAR Code:
2022/01/06 11:20
EDDM 061120Z 27012KT 240V300 9999 SCT015 SCT050 02/M01 Q1018 NOSIG

Flugschulen am Flugplatz Friesach-Hirt

Am Flugplatz Friesach-Hirt gibt es leider keine Flugschule.

Benachbarte Flugplätze und Flugschulen

Es gibt 2 weitere Flugplätze in einem Umkreis von 50 km um den Flugplatz Friesach-Hirt.

Flugplatz Mayerhofen LOKM 7.21 km
Flugplatz KLV - Wolfsberg LOKW 31.56 km
Jetzt anmelden

Passwort vergessen

Umfrage Archiv

Welche Navigations-App nutzt Ihr im Cockpit

SkyDemon
51.8 %
VFRnav
18.7 %
Ich nutze eine andere App
17.1 %
Ich nutze gar keine App
5.4 %
EasyVFR
5.1 %
ForeFlight
1.9 %
Stimmen: 257 | Diskussion (45)
Anzeige: Roland Aircraft
Statistik Alle Mitglieder

Aktuell sind 45 Besucher online, davon 1 Mitglied und 44 Gäste.


Mitglieder online:
ronnski 

Anzeige: Pocket FMS